sensor_id;sensor_type;location;lat;lon;timestamp;pressure;altitude;pressure_sealevel;temperature;humidity
75646;BME280;64237;52.438;13.240;2022-10-16T00:01:30;100690.66;;;13.76;87.68
75646;BME280;64237;52.438;13.240;2022-10-16T00:03:57;100697.06;;;13.76;87.70
75646;BME280;64237;52.438;13.240;2022-10-16T00:06:23;100698.47;;;13.79;87.67
75646;BME280;64237;52.438;13.240;2022-10-16T00:08:50;100685.63;;;13.72;87.23
75646;BME280;64237;52.438;13.240;2022-10-16T00:11:18;100697.13;;;13.81;87.87
75646;BME280;64237;52.438;13.240;2022-10-16T00:13:45;100697.38;;;13.80;87.72
75646;BME280;64237;52.438;13.240;2022-10-16T00:16:11;100701.31;;;13.84;87.58
75646;BME280;64237;52.438;13.240;2022-10-16T00:18:37;100695.75;;;13.84;87.43
75646;BME280;64237;52.438;13.240;2022-10-16T00:21:14;100705.19;;;13.83;87.68
75646;BME280;64237;52.438;13.240;2022-10-16T00:23:40;100704.09;;;13.84;87.50
75646;BME280;64237;52.438;13.240;2022-10-16T00:26:10;100706.88;;;13.84;87.41
75646;BME280;64237;52.438;13.240;2022-10-16T00:28:37;100717.19;;;13.88;87.50
75646;BME280;64237;52.438;13.240;2022-10-16T00:31:10;100719.16;;;13.93;87.31
75646;BME280;64237;52.438;13.240;2022-10-16T00:33:37;100721.09;;;13.92;87.30
75646;BME280;64237;52.438;13.240;2022-10-16T00:36:04;100729.19;;;13.94;87.21
75646;BME280;64237;52.438;13.240;2022-10-16T00:38:30;100716.91;;;13.90;87.45
75646;BME280;64237;52.438;13.240;2022-10-16T00:40:55;100721.91;;;13.88;87.39
75646;BME280;64237;52.438;13.240;2022-10-16T00:43:35;100721.38;;;13.91;87.45
75646;BME280;64237;52.438;13.240;2022-10-16T00:46:03;100718.06;;;13.94;87.51
75646;BME280;64237;52.438;13.240;2022-10-16T00:48:30;100714.97;;;13.90;87.66
75646;BME280;64237;52.438;13.240;2022-10-16T00:50:56;100720.84;;;13.94;87.49
75646;BME280;64237;52.438;13.240;2022-10-16T00:53:24;100729.19;;;13.94;87.63
75646;BME280;64237;52.438;13.240;2022-10-16T00:55:50;100725.84;;;13.92;87.62
75646;BME280;64237;52.438;13.240;2022-10-16T00:58:16;100728.03;;;13.90;87.84
75646;BME280;64237;52.438;13.240;2022-10-16T01:00:41;100731.91;;;13.89;87.99
75646;BME280;64237;52.438;13.240;2022-10-16T01:03:28;100732.19;;;13.87;87.86
75646;BME280;64237;52.438;13.240;2022-10-16T01:06:02;100736.91;;;13.87;87.91
75646;BME280;64237;52.438;13.240;2022-10-16T01:08:58;100729.13;;;13.89;87.78
75646;BME280;64237;52.438;13.240;2022-10-16T01:11:35;100722.97;;;13.82;87.95
75646;BME280;64237;52.438;13.240;2022-10-16T01:14:26;100737.47;;;13.84;87.92
75646;BME280;64237;52.438;13.240;2022-10-16T01:22:26;100744.59;;;13.75;88.16
75646;BME280;64237;52.438;13.240;2022-10-16T01:24:58;100744.91;;;13.78;88.28
75646;BME280;64237;52.438;13.240;2022-10-16T01:27:30;100752.38;;;13.72;88.53
75646;BME280;64237;52.438;13.240;2022-10-16T01:35:11;100751.22;;;13.68;88.13
75646;BME280;64237;52.438;13.240;2022-10-16T01:37:47;100761.16;;;13.64;88.43
75646;BME280;64237;52.438;13.240;2022-10-16T01:40:16;100755.84;;;13.58;88.70
75646;BME280;64237;52.438;13.240;2022-10-16T01:42:47;100762.19;;;13.53;88.72
75646;BME280;64237;52.438;13.240;2022-10-16T01:45:15;100761.59;;;13.51;88.66
75646;BME280;64237;52.438;13.240;2022-10-16T01:47:44;100757.16;;;13.50;88.33
75646;BME280;64237;52.438;13.240;2022-10-16T01:50:12;100760.44;;;13.47;88.19
75646;BME280;64237;52.438;13.240;2022-10-16T01:52:42;100762.66;;;13.45;89.07
75646;BME280;64237;52.438;13.240;2022-10-16T01:55:09;100766.59;;;13.49;88.76
75646;BME280;64237;52.438;13.240;2022-10-16T01:57:38;100766.06;;;13.52;88.89
75646;BME280;64237;52.438;13.240;2022-10-16T02:00:09;100774.16;;;13.54;89.11
75646;BME280;64237;52.438;13.240;2022-10-16T02:02:37;100766.66;;;13.54;88.88
75646;BME280;64237;52.438;13.240;2022-10-16T02:07:38;100783.41;;;13.64;89.24
75646;BME280;64237;52.438;13.240;2022-10-16T02:10:04;100785.94;;;13.66;89.21
75646;BME280;64237;52.438;13.240;2022-10-16T02:12:35;100781.28;;;13.71;89.24
75646;BME280;64237;52.438;13.240;2022-10-16T02:15:04;100787.94;;;13.70;89.11
75646;BME280;64237;52.438;13.240;2022-10-16T02:17:30;100791.81;;;13.69;88.90
75646;BME280;64237;52.438;13.240;2022-10-16T02:19:56;100798.00;;;13.77;89.28
75646;BME280;64237;52.438;13.240;2022-10-16T02:22:33;100791.41;;;13.83;89.12
75646;BME280;64237;52.438;13.240;2022-10-16T02:25:15;100782.47;;;13.81;89.16
75646;BME280;64237;52.438;13.240;2022-10-16T02:27:48;100784.75;;;13.89;88.67
75646;BME280;64237;52.438;13.240;2022-10-16T02:30:29;100786.97;;;13.87;89.07
75646;BME280;64237;52.438;13.240;2022-10-16T02:32:56;100793.38;;;13.87;89.06
75646;BME280;64237;52.438;13.240;2022-10-16T02:35:24;100793.38;;;13.87;89.15
75646;BME280;64237;52.438;13.240;2022-10-16T02:37:50;100796.97;;;13.83;89.40
75646;BME280;64237;52.438;13.240;2022-10-16T02:40:17;100797.25;;;13.86;89.07
75646;BME280;64237;52.438;13.240;2022-10-16T02:42:43;100789.19;;;13.85;88.80
75646;BME280;64237;52.438;13.240;2022-10-16T02:45:10;100791.13;;;13.84;89.07
75646;BME280;64237;52.438;13.240;2022-10-16T02:47:36;100799.44;;;13.79;88.82
75646;BME280;64237;52.438;13.240;2022-10-16T02:50:03;100800.28;;;13.80;89.32
75646;BME280;64237;52.438;13.240;2022-10-16T02:52:28;100793.56;;;13.76;89.35
75646;BME280;64237;52.438;13.240;2022-10-16T02:54:54;100800.16;;;13.69;89.47
75646;BME280;64237;52.438;13.240;2022-10-16T02:57:19;100788.44;;;13.67;89.16
75646;BME280;64237;52.438;13.240;2022-10-16T02:59:45;100786.19;;;13.64;88.98
75646;BME280;64237;52.438;13.240;2022-10-16T03:02:10;100790.03;;;13.58;89.09
75646;BME280;64237;52.438;13.240;2022-10-16T03:04:36;100799.47;;;13.57;88.90
75646;BME280;64237;52.438;13.240;2022-10-16T03:07:02;100803.88;;;13.53;89.20
75646;BME280;64237;52.438;13.240;2022-10-16T03:09:28;100809.97;;;13.50;89.30
75646;BME280;64237;52.438;13.240;2022-10-16T03:11:53;100815.19;;;13.47;89.61
75646;BME280;64237;52.438;13.240;2022-10-16T03:14:18;100809.31;;;13.43;89.59
75646;BME280;64237;52.438;13.240;2022-10-16T03:16:44;100815.47;;;13.45;89.56
75646;BME280;64237;52.438;13.240;2022-10-16T03:19:09;100811.00;;;13.44;88.87
75646;BME280;64237;52.438;13.240;2022-10-16T03:21:35;100798.19;;;13.43;88.88
75646;BME280;64237;52.438;13.240;2022-10-16T03:24:00;100812.66;;;13.40;89.30
75646;BME280;64237;52.438;13.240;2022-10-16T03:26:25;100819.31;;;13.39;88.74
75646;BME280;64237;52.438;13.240;2022-10-16T03:28:51;100823.69;;;13.35;89.19
75646;BME280;64237;52.438;13.240;2022-10-16T03:31:16;100829.25;;;13.35;89.45
75646;BME280;64237;52.438;13.240;2022-10-16T03:33:41;100828.66;;;13.33;89.04
75646;BME280;64237;52.438;13.240;2022-10-16T03:36:07;100843.91;;;13.30;89.27
75646;BME280;64237;52.438;13.240;2022-10-16T03:38:32;100845.28;;;13.28;89.29
75646;BME280;64237;52.438;13.240;2022-10-16T03:40:58;100848.56;;;13.25;89.05
75646;BME280;64237;52.438;13.240;2022-10-16T03:43:23;100855.03;;;13.30;88.79
75646;BME280;64237;52.438;13.240;2022-10-16T03:45:50;100852.44;;;13.24;89.50
75646;BME280;64237;52.438;13.240;2022-10-16T03:48:16;100850.81;;;13.28;89.18
75646;BME280;64237;52.438;13.240;2022-10-16T03:50:42;100855.88;;;13.31;89.32
75646;BME280;64237;52.438;13.240;2022-10-16T03:53:07;100862.28;;;13.31;88.70
75646;BME280;64237;52.438;13.240;2022-10-16T03:55:32;100865.81;;;13.27;89.43
75646;BME280;64237;52.438;13.240;2022-10-16T03:57:58;100872.63;;;13.36;89.09
75646;BME280;64237;52.438;13.240;2022-10-16T04:00:23;100872.34;;;13.37;88.91
75646;BME280;64237;52.438;13.240;2022-10-16T04:02:49;100871.19;;;13.33;89.02
75646;BME280;64237;52.438;13.240;2022-10-16T04:05:14;100884.81;;;13.35;89.72
75646;BME280;64237;52.438;13.240;2022-10-16T04:07:39;100884.81;;;13.35;89.46
75646;BME280;64237;52.438;13.240;2022-10-16T04:10:05;100885.41;;;13.37;89.49
75646;BME280;64237;52.438;13.240;2022-10-16T04:12:30;100880.69;;;13.37;89.27
75646;BME280;64237;52.438;13.240;2022-10-16T04:14:56;100887.09;;;13.38;89.45
75646;BME280;64237;52.438;13.240;2022-10-16T04:17:21;100874.22;;;13.32;89.77
75646;BME280;64237;52.438;13.240;2022-10-16T04:19:46;100873.13;;;13.33;89.59
75646;BME280;64237;52.438;13.240;2022-10-16T04:22:12;100879.28;;;13.35;89.64
75646;BME280;64237;52.438;13.240;2022-10-16T04:24:38;100876.75;;;13.33;89.42
75646;BME280;64237;52.438;13.240;2022-10-16T04:27:03;100872.81;;;13.29;89.75
75646;BME280;64237;52.438;13.240;2022-10-16T04:29:29;100869.19;;;13.29;89.22
75646;BME280;64237;52.438;13.240;2022-10-16T04:31:54;100864.13;;;13.26;89.30
75646;BME280;64237;52.438;13.240;2022-10-16T04:34:19;100857.03;;;13.35;88.87
75646;BME280;64237;52.438;13.240;2022-10-16T04:36:47;100844.56;;;13.37;88.61
75646;BME280;64237;52.438;13.240;2022-10-16T04:39:13;100852.00;;;13.32;88.72
75646;BME280;64237;52.438;13.240;2022-10-16T04:41:39;100849.28;;;13.37;88.41
75646;BME280;64237;52.438;13.240;2022-10-16T04:44:04;100851.66;;;13.28;88.68
75646;BME280;64237;52.438;13.240;2022-10-16T04:46:29;100854.06;;;13.20;88.36
75646;BME280;64237;52.438;13.240;2022-10-16T04:48:55;100856.75;;;13.15;88.64
75646;BME280;64237;52.438;13.240;2022-10-16T04:51:20;100867.84;;;13.15;88.64
75646;BME280;64237;52.438;13.240;2022-10-16T04:53:45;100864.41;;;13.08;88.74
75646;BME280;64237;52.438;13.240;2022-10-16T04:56:11;100863.19;;;12.98;88.69
75646;BME280;64237;52.438;13.240;2022-10-16T04:58:36;100863.72;;;12.95;89.06
75646;BME280;64237;52.438;13.240;2022-10-16T05:01:01;100869.53;;;12.94;89.25
75646;BME280;64237;52.438;13.240;2022-10-16T05:03:27;100878.88;;;12.88;89.00
75646;BME280;64237;52.438;13.240;2022-10-16T05:05:52;100885.59;;;12.92;89.00
75646;BME280;64237;52.438;13.240;2022-10-16T05:08:18;100888.13;;;12.93;89.00
75646;BME280;64237;52.438;13.240;2022-10-16T05:10:44;100895.28;;;12.89;89.22
75646;BME280;64237;52.438;13.240;2022-10-16T05:13:10;100895.34;;;12.94;89.35
75646;BME280;64237;52.438;13.240;2022-10-16T05:15:36;100894.31;;;13.00;89.15
75646;BME280;64237;52.438;13.240;2022-10-16T05:18:01;100904.56;;;13.00;88.99
75646;BME280;64237;52.438;13.240;2022-10-16T05:20:27;100890.97;;;12.98;89.17
75646;BME280;64237;52.438;13.240;2022-10-16T05:22:52;100894.31;;;13.00;88.66
75646;BME280;64237;52.438;13.240;2022-10-16T05:25:17;100884.84;;;12.96;88.96
75646;BME280;64237;52.438;13.240;2022-10-16T05:27:46;100887.06;;;12.99;88.73
75646;BME280;64237;52.438;13.240;2022-10-16T05:30:11;100883.66;;;12.92;88.98
75646;BME280;64237;52.438;13.240;2022-10-16T05:32:37;100886.44;;;12.92;89.13
75646;BME280;64237;52.438;13.240;2022-10-16T05:35:05;100900.41;;;12.97;88.73
75646;BME280;64237;52.438;13.240;2022-10-16T05:37:31;100899.72;;;12.90;89.14
75646;BME280;64237;52.438;13.240;2022-10-16T05:39:57;100898.03;;;12.89;89.12
75646;BME280;64237;52.438;13.240;2022-10-16T05:42:22;100898.72;;;12.96;89.32
75646;BME280;64237;52.438;13.240;2022-10-16T05:44:47;100907.94;;;13.02;89.02
75646;BME280;64237;52.438;13.240;2022-10-16T05:47:13;100906.25;;;13.01;88.68
75646;BME280;64237;52.438;13.240;2022-10-16T05:49:39;100895.47;;;13.04;88.56
75646;BME280;64237;52.438;13.240;2022-10-16T05:52:04;100906.34;;;13.06;88.33
75646;BME280;64237;52.438;13.240;2022-10-16T05:54:30;100902.50;;;14.53;84.00
75646;BME280;64237;52.438;13.240;2022-10-16T05:56:55;100906.91;;;15.23;80.50
75646;BME280;64237;52.438;13.240;2022-10-16T05:59:20;100901.66;;;14.48;81.93
75646;BME280;64237;52.438;13.240;2022-10-16T06:01:46;100907.72;;;14.18;83.15
75646;BME280;64237;52.438;13.240;2022-10-16T06:04:11;100903.22;;;13.85;84.75
75646;BME280;64237;52.438;13.240;2022-10-16T06:06:37;100912.47;;;13.68;85.66
75646;BME280;64237;52.438;13.240;2022-10-16T06:09:03;100923.16;;;13.55;86.17
75646;BME280;64237;52.438;13.240;2022-10-16T06:11:31;100914.41;;;13.46;87.17
75646;BME280;64237;52.438;13.240;2022-10-16T06:13:59;100923.91;;;13.50;87.22
75646;BME280;64237;52.438;13.240;2022-10-16T06:16:27;100924.19;;;13.49;87.68
75646;BME280;64237;52.438;13.240;2022-10-16T06:18:53;100921.63;;;13.42;87.98
75646;BME280;64237;52.438;13.240;2022-10-16T06:21:23;100923.00;;;13.45;88.26
75646;BME280;64237;52.438;13.240;2022-10-16T06:23:52;100927.72;;;13.44;88.43
75646;BME280;64237;52.438;13.240;2022-10-16T06:26:20;100925.03;;;13.49;88.53
75646;BME280;64237;52.438;13.240;2022-10-16T06:28:46;100938.34;;;13.47;88.75
75646;BME280;64237;52.438;13.240;2022-10-16T06:31:12;100933.94;;;13.51;88.89
75646;BME280;64237;52.438;13.240;2022-10-16T06:33:38;100936.72;;;13.51;89.15
75646;BME280;64237;52.438;13.240;2022-10-16T06:36:07;100947.34;;;13.54;88.89
75646;BME280;64237;52.438;13.240;2022-10-16T06:38:34;100965.78;;;13.60;89.13
75646;BME280;64237;52.438;13.240;2022-10-16T06:40:59;100967.72;;;13.60;89.18
75646;BME280;64237;52.438;13.240;2022-10-16T06:43:25;100975.00;;;13.66;89.00
75646;BME280;64237;52.438;13.240;2022-10-16T06:45:55;100975.84;;;13.66;89.16
75646;BME280;64237;52.438;13.240;2022-10-16T06:48:21;100963.69;;;13.72;88.81
75646;BME280;64237;52.438;13.240;2022-10-16T06:51:11;100966.22;;;13.74;88.54
75646;BME280;64237;52.438;13.240;2022-10-16T06:53:41;100968.75;;;13.76;88.76
75646;BME280;64237;52.438;13.240;2022-10-16T06:56:14;100967.19;;;13.85;88.58
75646;BME280;64237;52.438;13.240;2022-10-16T06:58:40;100967.81;;;13.92;88.41
75646;BME280;64237;52.438;13.240;2022-10-16T07:01:07;100963.59;;;13.89;88.25
75646;BME280;64237;52.438;13.240;2022-10-16T07:03:33;100971.00;;;14.00;88.24
75646;BME280;64237;52.438;13.240;2022-10-16T07:06:02;100984.22;;;14.15;87.61
75646;BME280;64237;52.438;13.240;2022-10-16T07:08:33;100988.75;;;14.21;87.49
75646;BME280;64237;52.438;13.240;2022-10-16T07:11:02;101000.81;;;14.32;87.29
75646;BME280;64237;52.438;13.240;2022-10-16T07:13:28;100993.88;;;14.34;87.51
75646;BME280;64237;52.438;13.240;2022-10-16T07:15:54;100995.66;;;14.40;87.23
75646;BME280;64237;52.438;13.240;2022-10-16T07:18:20;100986.00;;;14.48;87.28
75646;BME280;64237;52.438;13.240;2022-10-16T07:20:45;100991.91;;;14.57;87.38
75646;BME280;64237;52.438;13.240;2022-10-16T07:23:10;101000.13;;;14.68;86.12
75646;BME280;64237;52.438;13.240;2022-10-16T07:25:36;100998.84;;;14.81;86.33
75646;BME280;64237;52.438;13.240;2022-10-16T07:28:01;100997.78;;;14.87;86.74
75646;BME280;64237;52.438;13.240;2022-10-16T07:30:27;101003.94;;;14.94;86.49
75646;BME280;64237;52.438;13.240;2022-10-16T07:32:52;100983.63;;;14.94;85.56
75646;BME280;64237;52.438;13.240;2022-10-16T07:35:17;100994.53;;;15.00;85.18
75646;BME280;64237;52.438;13.240;2022-10-16T07:37:46;100994.50;;;14.95;85.79
75646;BME280;64237;52.438;13.240;2022-10-16T07:40:11;101000.09;;;15.00;85.80
75646;BME280;64237;52.438;13.240;2022-10-16T07:42:37;100998.22;;;15.06;85.92
75646;BME280;64237;52.438;13.240;2022-10-16T07:45:02;101007.72;;;15.10;84.81
75646;BME280;64237;52.438;13.240;2022-10-16T07:47:28;101009.41;;;15.11;85.16
75646;BME280;64237;52.438;13.240;2022-10-16T07:49:53;100999.09;;;15.12;84.72
75646;BME280;64237;52.438;13.240;2022-10-16T07:52:19;100991.84;;;15.11;85.73
75646;BME280;64237;52.438;13.240;2022-10-16T07:54:45;101000.78;;;15.18;85.24
75646;BME280;64237;52.438;13.240;2022-10-16T07:57:11;101013.66;;;15.24;84.90
75646;BME280;64237;52.438;13.240;2022-10-16T07:59:36;101021.75;;;15.25;85.11
75646;BME280;64237;52.438;13.240;2022-10-16T08:02:01;101035.44;;;15.27;84.98
75646;BME280;64237;52.438;13.240;2022-10-16T08:04:27;101025.97;;;15.28;84.83
75646;BME280;64237;52.438;13.240;2022-10-16T08:06:52;101033.25;;;15.34;85.11
75646;BME280;64237;52.438;13.240;2022-10-16T08:09:20;101046.13;;;15.40;84.70
75646;BME280;64237;52.438;13.240;2022-10-16T08:11:46;101040.31;;;15.47;84.51
75646;BME280;64237;52.438;13.240;2022-10-16T08:14:11;101042.31;;;15.51;83.86
75646;BME280;64237;52.438;13.240;2022-10-16T08:16:36;101039.59;;;15.56;84.39
75646;BME280;64237;52.438;13.240;2022-10-16T08:19:02;101046.59;;;15.64;84.20
75646;BME280;64237;52.438;13.240;2022-10-16T08:21:28;101054.16;;;15.68;83.72
75646;BME280;64237;52.438;13.240;2022-10-16T08:23:53;101044.19;;;15.77;83.02
75646;BME280;64237;52.438;13.240;2022-10-16T08:26:20;101046.44;;;15.86;82.54
75646;BME280;64237;52.438;13.240;2022-10-16T08:28:46;101038.66;;;15.93;82.03
75646;BME280;64237;52.438;13.240;2022-10-16T08:31:15;101054.59;;;15.97;82.34
75646;BME280;64237;52.438;13.240;2022-10-16T08:33:43;101062.13;;;15.97;82.07
75646;BME280;64237;52.438;13.240;2022-10-16T08:36:11;101056.84;;;16.00;81.96
75646;BME280;64237;52.438;13.240;2022-10-16T08:38:37;101047.06;;;15.98;82.81
75646;BME280;64237;52.438;13.240;2022-10-16T08:49:33;101056.03;;;16.10;81.63
75646;BME280;64237;52.438;13.240;2022-10-16T08:51:58;101057.16;;;16.09;82.25
75646;BME280;64237;52.438;13.240;2022-10-16T08:54:43;101057.72;;;16.11;81.97
75646;BME280;64237;52.438;13.240;2022-10-16T08:57:16;101077.28;;;16.16;81.63
75646;BME280;64237;52.438;13.240;2022-10-16T08:59:42;101072.84;;;16.20;82.19
75646;BME280;64237;52.438;13.240;2022-10-16T09:05:02;101074.91;;;16.50;80.83
75646;BME280;64237;52.438;13.240;2022-10-16T09:07:46;101086.38;;;16.59;81.33
75646;BME280;64237;52.438;13.240;2022-10-16T09:15:40;101097.66;;;16.79;78.43
75646;BME280;64237;52.438;13.240;2022-10-16T09:18:24;101095.41;;;16.91;78.65
75646;BME280;64237;52.438;13.240;2022-10-16T09:20:53;101098.25;;;17.01;78.84
75646;BME280;64237;52.438;13.240;2022-10-16T09:23:27;101088.19;;;17.21;78.01
75646;BME280;64237;52.438;13.240;2022-10-16T09:25:54;101075.88;;;17.22;77.07
75646;BME280;64237;52.438;13.240;2022-10-16T09:28:20;101085.69;;;17.29;78.11
75646;BME280;64237;52.438;13.240;2022-10-16T09:30:46;101074.78;;;17.23;76.50
75646;BME280;64237;52.438;13.240;2022-10-16T09:33:17;101092.66;;;17.17;76.68
75646;BME280;64237;52.438;13.240;2022-10-16T09:35:45;101096.56;;;17.16;78.90
75646;BME280;64237;52.438;13.240;2022-10-16T09:38:35;101092.66;;;17.37;76.99
75646;BME280;64237;52.438;13.240;2022-10-16T09:41:11;101107.78;;;17.66;75.21
75646;BME280;64237;52.438;13.240;2022-10-16T09:43:47;101112.53;;;17.76;75.47
75646;BME280;64237;52.438;13.240;2022-10-16T09:46:34;101106.34;;;17.59;74.83
75646;BME280;64237;52.438;13.240;2022-10-16T09:49:03;101111.69;;;17.50;77.83
75646;BME280;64237;52.438;13.240;2022-10-16T09:51:30;101112.25;;;17.47;76.80
75646;BME280;64237;52.438;13.240;2022-10-16T09:54:21;101122.31;;;17.48;74.60
75646;BME280;64237;52.438;13.240;2022-10-16T09:56:46;101127.34;;;17.81;73.90
75646;BME280;64237;52.438;13.240;2022-10-16T09:59:21;101133.75;;;18.12;71.98
75646;BME280;64237;52.438;13.240;2022-10-16T10:01:53;101130.03;;;18.27;71.93
75646;BME280;64237;52.438;13.240;2022-10-16T10:04:22;101134.56;;;18.18;71.10
75646;BME280;64237;52.438;13.240;2022-10-16T10:06:57;101139.28;;;18.33;72.29
75646;BME280;64237;52.438;13.240;2022-10-16T10:09:28;101133.88;;;18.57;73.15
75646;BME280;64237;52.438;13.240;2022-10-16T10:12:01;101136.03;;;18.75;72.76
75646;BME280;64237;52.438;13.240;2022-10-16T10:19:53;101139.84;;;18.94;71.33
75646;BME280;64237;52.438;13.240;2022-10-16T10:38:50;101151.22;;;18.64;68.54
75646;BME280;64237;52.438;13.240;2022-10-16T10:41:32;101151.75;;;18.76;67.19
75646;BME280;64237;52.438;13.240;2022-10-16T10:46:53;101149.97;;;18.90;68.85
75646;BME280;64237;52.438;13.240;2022-10-16T10:51:54;101161.91;;;19.11;64.57
75646;BME280;64237;52.438;13.240;2022-10-16T10:54:37;101166.53;;;19.31;65.37
75646;BME280;64237;52.438;13.240;2022-10-16T11:00:13;101160.50;;;19.13;65.78
75646;BME280;64237;52.438;13.240;2022-10-16T11:02:49;101156.94;;;19.03;64.40
75646;BME280;64237;52.438;13.240;2022-10-16T11:05:27;101161.59;;;19.91;62.32
75646;BME280;64237;52.438;13.240;2022-10-16T11:07:55;101161.22;;;20.26;62.64
75646;BME280;64237;52.438;13.240;2022-10-16T11:10:26;101168.19;;;20.58;59.46
75646;BME280;64237;52.438;13.240;2022-10-16T11:15:47;101167.56;;;20.84;58.77
75646;BME280;64237;52.438;13.240;2022-10-16T11:18:21;101158.84;;;20.38;59.08
75646;BME280;64237;52.438;13.240;2022-10-16T11:20:57;101172.75;;;19.96;59.96
75646;BME280;64237;52.438;13.240;2022-10-16T11:23:28;101163.91;;;19.83;60.30
75646;BME280;64237;52.438;13.240;2022-10-16T11:26:00;101164.06;;;19.68;59.17
75646;BME280;64237;52.438;13.240;2022-10-16T11:31:02;101166.25;;;19.71;64.43
75646;BME280;64237;52.438;13.240;2022-10-16T11:41:48;101157.97;;;19.90;61.04
75646;BME280;64237;52.438;13.240;2022-10-16T11:44:17;101159.75;;;19.76;59.98
75646;BME280;64237;52.438;13.240;2022-10-16T11:46:50;101166.84;;;19.68;59.23
75646;BME280;64237;52.438;13.240;2022-10-16T11:49:22;101163.88;;;19.55;60.84
75646;BME280;64237;52.438;13.240;2022-10-16T11:52:28;101161.47;;;19.33;62.67
75646;BME280;64237;52.438;13.240;2022-10-16T11:55:04;101167.19;;;19.23;61.78
75646;BME280;64237;52.438;13.240;2022-10-16T11:57:39;101172.25;;;19.21;62.53
75646;BME280;64237;52.438;13.240;2022-10-16T12:05:19;101170.88;;;19.57;64.06
75646;BME280;64237;52.438;13.240;2022-10-16T12:08:07;101180.69;;;19.60;65.68
75646;BME280;64237;52.438;13.240;2022-10-16T12:10:34;101183.22;;;19.56;65.69
75646;BME280;64237;52.438;13.240;2022-10-16T12:13:30;101199.38;;;20.32;62.58
75646;BME280;64237;52.438;13.240;2022-10-16T12:18:36;101186.59;;;24.40;46.58
75646;BME280;64237;52.438;13.240;2022-10-16T12:21:02;101193.84;;;24.64;46.17
75646;BME280;64237;52.438;13.240;2022-10-16T12:23:55;101192.50;;;25.01;47.31
75646;BME280;64237;52.438;13.240;2022-10-16T12:26:37;101189.22;;;24.76;47.63
75646;BME280;64237;52.438;13.240;2022-10-16T12:31:45;101199.81;;;25.02;44.62
75646;BME280;64237;52.438;13.240;2022-10-16T12:34:22;101192.69;;;25.21;44.30
75646;BME280;64237;52.438;13.240;2022-10-16T12:36:49;101202.75;;;24.88;43.40
75646;BME280;64237;52.438;13.240;2022-10-16T12:39:22;101203.38;;;24.76;43.96
75646;BME280;64237;52.438;13.240;2022-10-16T12:42:00;101194.84;;;24.06;46.22
75646;BME280;64237;52.438;13.240;2022-10-16T12:44:25;101196.88;;;22.70;45.95
75646;BME280;64237;52.438;13.240;2022-10-16T12:46:57;101197.53;;;21.88;51.37
75646;BME280;64237;52.438;13.240;2022-10-16T12:49:37;101190.22;;;21.36;52.77
75646;BME280;64237;52.438;13.240;2022-10-16T12:52:44;101203.31;;;21.03;53.25
75646;BME280;64237;52.438;13.240;2022-10-16T12:55:21;101197.72;;;20.79;56.89
75646;BME280;64237;52.438;13.240;2022-10-16T12:58:16;101204.56;;;20.49;54.54
75646;BME280;64237;52.438;13.240;2022-10-16T13:00:50;101210.59;;;20.37;56.21
75646;BME280;64237;52.438;13.240;2022-10-16T13:03:25;101213.50;;;20.27;56.60
75646;BME280;64237;52.438;13.240;2022-10-16T13:14:39;101218.13;;;20.13;57.46
75646;BME280;64237;52.438;13.240;2022-10-16T13:17:28;101232.22;;;20.08;57.47
75646;BME280;64237;52.438;13.240;2022-10-16T13:25:22;101245.97;;;19.75;56.58
75646;BME280;64237;52.438;13.240;2022-10-16T13:28:01;101246.84;;;19.71;57.71
75646;BME280;64237;52.438;13.240;2022-10-16T13:30:29;101254.41;;;19.70;56.81
75646;BME280;64237;52.438;13.240;2022-10-16T13:33:04;101255.88;;;19.68;55.76
75646;BME280;64237;52.438;13.240;2022-10-16T13:35:32;101253.94;;;19.63;58.15
75646;BME280;64237;52.438;13.240;2022-10-16T13:40:30;101254.34;;;19.36;58.57
75646;BME280;64237;52.438;13.240;2022-10-16T13:42:56;101260.31;;;19.25;58.87
75646;BME280;64237;52.438;13.240;2022-10-16T13:45:25;101250.25;;;19.13;58.22
75646;BME280;64237;52.438;13.240;2022-10-16T13:48:02;101249.16;;;19.09;59.75
75646;BME280;64237;52.438;13.240;2022-10-16T13:50:27;101250.31;;;19.03;59.88
75646;BME280;64237;52.438;13.240;2022-10-16T13:53:04;101268.84;;;19.04;60.19
75646;BME280;64237;52.438;13.240;2022-10-16T13:55:30;101263.22;;;19.04;58.08
75646;BME280;64237;52.438;13.240;2022-10-16T13:58:07;101263.22;;;18.99;57.82
75646;BME280;64237;52.438;13.240;2022-10-16T14:00:33;101263.78;;;19.01;57.57
75646;BME280;64237;52.438;13.240;2022-10-16T14:03:03;101256.22;;;18.97;59.25
75646;BME280;64237;52.438;13.240;2022-10-16T14:05:29;101255.97;;;18.88;60.42
75646;BME280;64237;52.438;13.240;2022-10-16T14:07:56;101266.06;;;18.84;59.96
75646;BME280;64237;52.438;13.240;2022-10-16T14:10:25;101263.88;;;18.81;59.89
75646;BME280;64237;52.438;13.240;2022-10-16T14:13:01;101267.53;;;18.66;60.47
75646;BME280;64237;52.438;13.240;2022-10-16T14:15:27;101272.88;;;18.63;60.53
75646;BME280;64237;52.438;13.240;2022-10-16T14:17:54;101275.69;;;18.58;59.13
75646;BME280;64237;52.438;13.240;2022-10-16T14:20:24;101273.44;;;18.55;58.65
75646;BME280;64237;52.438;13.240;2022-10-16T14:23:01;101274.00;;;18.57;58.79
75646;BME280;64237;52.438;13.240;2022-10-16T14:25:30;101278.47;;;18.53;60.34
75646;BME280;64237;52.438;13.240;2022-10-16T14:28:02;101274.00;;;18.41;60.22
75646;BME280;64237;52.438;13.240;2022-10-16T14:30:28;101274.00;;;18.46;58.16
75646;BME280;64237;52.438;13.240;2022-10-16T14:33:05;101284.69;;;18.39;58.37